sensor_id;sensor_type;location;lat;lon;timestamp;P1;durP1;ratioP1;P2;durP2;ratioP2
78614;SDS011;67937;52.488;20.952;2023-08-20T00:02:11;14.30;;;12.80;;
78614;SDS011;67937;52.488;20.952;2023-08-20T00:04:40;14.90;;;13.30;;
78614;SDS011;67937;52.488;20.952;2023-08-20T00:07:12;14.50;;;12.70;;
78614;SDS011;67937;52.488;20.952;2023-08-20T00:09:42;14.40;;;12.80;;
78614;SDS011;67937;52.488;20.952;2023-08-20T00:12:10;14.60;;;13.20;;
78614;SDS011;67937;52.488;20.952;2023-08-20T00:14:53;15.70;;;13.90;;
78614;SDS011;67937;52.488;20.952;2023-08-20T00:17:25;14.20;;;12.70;;
78614;SDS011;67937;52.488;20.952;2023-08-20T00:19:54;13.70;;;12.40;;
78614;SDS011;67937;52.488;20.952;2023-08-20T00:22:22;15.00;;;12.30;;
78614;SDS011;67937;52.488;20.952;2023-08-20T00:24:54;16.10;;;11.90;;
78614;SDS011;67937;52.488;20.952;2023-08-20T00:27:22;12.90;;;11.70;;
78614;SDS011;67937;52.488;20.952;2023-08-20T00:29:50;13.30;;;11.90;;
78614;SDS011;67937;52.488;20.952;2023-08-20T00:32:18;13.60;;;11.90;;
78614;SDS011;67937;52.488;20.952;2023-08-20T00:34:46;12.90;;;11.60;;
78614;SDS011;67937;52.488;20.952;2023-08-20T00:37:14;12.70;;;11.50;;
78614;SDS011;67937;52.488;20.952;2023-08-20T00:39:42;14.20;;;12.50;;
78614;SDS011;67937;52.488;20.952;2023-08-20T00:42:10;14.10;;;11.40;;
78614;SDS011;67937;52.488;20.952;2023-08-20T00:44:40;18.10;;;12.70;;
78614;SDS011;67937;52.488;20.952;2023-08-20T00:47:10;13.10;;;11.80;;
78614;SDS011;67937;52.488;20.952;2023-08-20T00:49:40;13.90;;;12.50;;
78614;SDS011;67937;52.488;20.952;2023-08-20T00:52:09;18.20;;;11.70;;
78614;SDS011;67937;52.488;20.952;2023-08-20T00:54:41;13.70;;;12.00;;
78614;SDS011;67937;52.488;20.952;2023-08-20T00:57:13;16.40;;;12.60;;
78614;SDS011;67937;52.488;20.952;2023-08-20T01:02:10;14.30;;;12.80;;
78614;SDS011;67937;52.488;20.952;2023-08-20T01:04:38;15.20;;;13.60;;
78614;SDS011;67937;52.488;20.952;2023-08-20T01:07:18;14.90;;;13.30;;
78614;SDS011;67937;52.488;20.952;2023-08-20T01:10:08;16.00;;;13.90;;
78614;SDS011;67937;52.488;20.952;2023-08-20T01:12:45;16.40;;;13.20;;
78614;SDS011;67937;52.488;20.952;2023-08-20T01:15:13;14.00;;;12.70;;
78614;SDS011;67937;52.488;20.952;2023-08-20T01:17:41;13.20;;;11.60;;
78614;SDS011;67937;52.488;20.952;2023-08-20T01:20:12;14.00;;;11.70;;
78614;SDS011;67937;52.488;20.952;2023-08-20T01:30:44;13.40;;;12.00;;
78614;SDS011;67937;52.488;20.952;2023-08-20T01:33:13;14.80;;;13.40;;
78614;SDS011;67937;52.488;20.952;2023-08-20T01:35:42;14.80;;;12.20;;
78614;SDS011;67937;52.488;20.952;2023-08-20T01:38:10;13.80;;;12.30;;
78614;SDS011;67937;52.488;20.952;2023-08-20T01:40:38;15.00;;;13.50;;
78614;SDS011;67937;52.488;20.952;2023-08-20T01:43:06;15.80;;;13.30;;
78614;SDS011;67937;52.488;20.952;2023-08-20T01:45:34;15.00;;;13.10;;
78614;SDS011;67937;52.488;20.952;2023-08-20T01:48:02;16.40;;;13.10;;
78614;SDS011;67937;52.488;20.952;2023-08-20T01:50:30;18.10;;;13.00;;
78614;SDS011;67937;52.488;20.952;2023-08-20T01:52:59;15.20;;;13.50;;
78614;SDS011;67937;52.488;20.952;2023-08-20T01:55:27;15.10;;;13.60;;
78614;SDS011;67937;52.488;20.952;2023-08-20T01:57:55;15.80;;;14.30;;
78614;SDS011;67937;52.488;20.952;2023-08-20T02:00:23;16.10;;;14.30;;
78614;SDS011;67937;52.488;20.952;2023-08-20T02:02:51;18.40;;;14.50;;
78614;SDS011;67937;52.488;20.952;2023-08-20T02:05:19;17.10;;;14.50;;
78614;SDS011;67937;52.488;20.952;2023-08-20T02:07:47;16.20;;;14.70;;
78614;SDS011;67937;52.488;20.952;2023-08-20T02:10:15;16.00;;;14.30;;
78614;SDS011;67937;52.488;20.952;2023-08-20T02:12:43;15.70;;;13.60;;
78614;SDS011;67937;52.488;20.952;2023-08-20T02:15:11;17.30;;;14.10;;
78614;SDS011;67937;52.488;20.952;2023-08-20T02:17:38;15.70;;;14.10;;
78614;SDS011;67937;52.488;20.952;2023-08-20T02:20:06;15.00;;;13.50;;
78614;SDS011;67937;52.488;20.952;2023-08-20T02:22:36;15.50;;;14.00;;
78614;SDS011;67937;52.488;20.952;2023-08-20T02:25:04;13.90;;;12.00;;
78614;SDS011;67937;52.488;20.952;2023-08-20T02:27:32;15.00;;;12.90;;
78614;SDS011;67937;52.488;20.952;2023-08-20T02:30:00;14.60;;;13.10;;
78614;SDS011;67937;52.488;20.952;2023-08-20T02:32:29;15.00;;;13.50;;
78614;SDS011;67937;52.488;20.952;2023-08-20T02:34:58;14.00;;;12.70;;
78614;SDS011;67937;52.488;20.952;2023-08-20T02:37:26;15.20;;;13.10;;
78614;SDS011;67937;52.488;20.952;2023-08-20T02:39:54;15.10;;;13.20;;
78614;SDS011;67937;52.488;20.952;2023-08-20T02:42:22;14.20;;;12.60;;
78614;SDS011;67937;52.488;20.952;2023-08-20T02:44:50;14.10;;;12.70;;
78614;SDS011;67937;52.488;20.952;2023-08-20T02:47:18;15.50;;;13.10;;
78614;SDS011;67937;52.488;20.952;2023-08-20T02:49:46;15.60;;;13.10;;
78614;SDS011;67937;52.488;20.952;2023-08-20T02:52:13;15.30;;;11.60;;
78614;SDS011;67937;52.488;20.952;2023-08-20T02:54:41;15.60;;;12.30;;
78614;SDS011;67937;52.488;20.952;2023-08-20T02:57:09;13.60;;;12.20;;
78614;SDS011;67937;52.488;20.952;2023-08-20T02:59:37;14.90;;;13.50;;
78614;SDS011;67937;52.488;20.952;2023-08-20T03:02:05;13.00;;;11.30;;
78614;SDS011;67937;52.488;20.952;2023-08-20T03:04:33;13.40;;;12.00;;
78614;SDS011;67937;52.488;20.952;2023-08-20T03:07:01;12.90;;;11.60;;
78614;SDS011;67937;52.488;20.952;2023-08-20T03:09:30;14.50;;;13.00;;
78614;SDS011;67937;52.488;20.952;2023-08-20T03:11:58;11.80;;;10.70;;
78614;SDS011;67937;52.488;20.952;2023-08-20T03:14:26;12.50;;;11.20;;
78614;SDS011;67937;52.488;20.952;2023-08-20T03:16:54;13.10;;;11.90;;
78614;SDS011;67937;52.488;20.952;2023-08-20T03:19:22;15.50;;;12.30;;
78614;SDS011;67937;52.488;20.952;2023-08-20T03:21:50;12.10;;;10.70;;
78614;SDS011;67937;52.488;20.952;2023-08-20T03:24:17;13.70;;;10.90;;
78614;SDS011;67937;52.488;20.952;2023-08-20T03:26:45;12.00;;;10.80;;
78614;SDS011;67937;52.488;20.952;2023-08-20T03:29:14;12.50;;;10.50;;
78614;SDS011;67937;52.488;20.952;2023-08-20T03:31:42;12.50;;;11.20;;
78614;SDS011;67937;52.488;20.952;2023-08-20T03:34:09;11.60;;;10.50;;
78614;SDS011;67937;52.488;20.952;2023-08-20T03:36:37;11.70;;;10.50;;
78614;SDS011;67937;52.488;20.952;2023-08-20T03:39:05;12.10;;;10.90;;
78614;SDS011;67937;52.488;20.952;2023-08-20T03:41:33;14.00;;;11.50;;
78614;SDS011;67937;52.488;20.952;2023-08-20T03:44:01;12.30;;;11.00;;
78614;SDS011;67937;52.488;20.952;2023-08-20T03:46:30;13.40;;;11.60;;
78614;SDS011;67937;52.488;20.952;2023-08-20T03:48:58;12.10;;;11.00;;
78614;SDS011;67937;52.488;20.952;2023-08-20T03:51:26;13.40;;;12.00;;
78614;SDS011;67937;52.488;20.952;2023-08-20T03:53:53;13.20;;;11.50;;
78614;SDS011;67937;52.488;20.952;2023-08-20T03:56:21;12.40;;;10.80;;
78614;SDS011;67937;52.488;20.952;2023-08-20T03:58:49;11.70;;;10.60;;
78614;SDS011;67937;52.488;20.952;2023-08-20T04:01:19;14.00;;;11.00;;
78614;SDS011;67937;52.488;20.952;2023-08-20T04:03:47;14.70;;;11.10;;
78614;SDS011;67937;52.488;20.952;2023-08-20T04:06:15;11.30;;;10.20;;
78614;SDS011;67937;52.488;20.952;2023-08-20T04:08:43;12.90;;;11.40;;
78614;SDS011;67937;52.488;20.952;2023-08-20T04:11:10;13.90;;;12.50;;
78614;SDS011;67937;52.488;20.952;2023-08-20T04:13:38;13.70;;;12.30;;
78614;SDS011;67937;52.488;20.952;2023-08-20T04:16:09;16.50;;;13.70;;
78614;SDS011;67937;52.488;20.952;2023-08-20T04:18:37;14.70;;;13.10;;
78614;SDS011;67937;52.488;20.952;2023-08-20T04:21:06;17.60;;;13.50;;
78614;SDS011;67937;52.488;20.952;2023-08-20T04:23:34;15.30;;;12.80;;
78614;SDS011;67937;52.488;20.952;2023-08-20T04:26:02;16.10;;;12.70;;
78614;SDS011;67937;52.488;20.952;2023-08-20T04:28:30;15.90;;;14.30;;
78614;SDS011;67937;52.488;20.952;2023-08-20T04:30:58;14.60;;;13.10;;
78614;SDS011;67937;52.488;20.952;2023-08-20T04:33:26;15.90;;;14.10;;
78614;SDS011;67937;52.488;20.952;2023-08-20T04:35:54;16.80;;;13.50;;
78614;SDS011;67937;52.488;20.952;2023-08-20T04:38:22;19.20;;;14.60;;
78614;SDS011;67937;52.488;20.952;2023-08-20T04:40:50;18.90;;;15.50;;
78614;SDS011;67937;52.488;20.952;2023-08-20T04:43:18;17.20;;;14.60;;
78614;SDS011;67937;52.488;20.952;2023-08-20T04:45:46;18.10;;;15.30;;
78614;SDS011;67937;52.488;20.952;2023-08-20T04:48:14;16.70;;;15.00;;
78614;SDS011;67937;52.488;20.952;2023-08-20T04:50:41;19.10;;;17.30;;
78614;SDS011;67937;52.488;20.952;2023-08-20T04:53:09;17.00;;;14.90;;
78614;SDS011;67937;52.488;20.952;2023-08-20T04:55:37;18.60;;;16.80;;
78614;SDS011;67937;52.488;20.952;2023-08-20T04:58:05;21.60;;;16.10;;
78614;SDS011;67937;52.488;20.952;2023-08-20T05:00:33;18.50;;;16.60;;
78614;SDS011;67937;52.488;20.952;2023-08-20T05:03:01;17.40;;;15.70;;
78614;SDS011;67937;52.488;20.952;2023-08-20T05:05:32;16.90;;;15.10;;
78614;SDS011;67937;52.488;20.952;2023-08-20T05:08:00;18.40;;;16.50;;
78614;SDS011;67937;52.488;20.952;2023-08-20T05:10:28;19.20;;;17.10;;
78614;SDS011;67937;52.488;20.952;2023-08-20T05:12:56;17.80;;;16.00;;
78614;SDS011;67937;52.488;20.952;2023-08-20T05:15:24;16.80;;;14.90;;
78614;SDS011;67937;52.488;20.952;2023-08-20T05:17:52;18.00;;;16.20;;
78614;SDS011;67937;52.488;20.952;2023-08-20T05:20:20;22.30;;;17.80;;
78614;SDS011;67937;52.488;20.952;2023-08-20T05:22:48;18.60;;;15.90;;
78614;SDS011;67937;52.488;20.952;2023-08-20T05:25:16;20.40;;;17.10;;
78614;SDS011;67937;52.488;20.952;2023-08-20T05:27:44;18.00;;;14.80;;
78614;SDS011;67937;52.488;20.952;2023-08-20T05:30:11;18.50;;;16.70;;
78614;SDS011;67937;52.488;20.952;2023-08-20T05:32:39;20.00;;;17.40;;
78614;SDS011;67937;52.488;20.952;2023-08-20T05:35:07;20.90;;;18.70;;
78614;SDS011;67937;52.488;20.952;2023-08-20T05:37:35;20.10;;;16.10;;
78614;SDS011;67937;52.488;20.952;2023-08-20T05:40:04;19.10;;;16.90;;
78614;SDS011;67937;52.488;20.952;2023-08-20T05:42:32;17.40;;;15.70;;
78614;SDS011;67937;52.488;20.952;2023-08-20T05:45:00;17.90;;;16.00;;
78614;SDS011;67937;52.488;20.952;2023-08-20T05:47:28;17.90;;;16.10;;
78614;SDS011;67937;52.488;20.952;2023-08-20T05:49:56;20.80;;;17.40;;
78614;SDS011;67937;52.488;20.952;2023-08-20T05:52:24;18.30;;;16.40;;
78614;SDS011;67937;52.488;20.952;2023-08-20T05:54:52;17.90;;;16.00;;
78614;SDS011;67937;52.488;20.952;2023-08-20T05:57:20;17.80;;;16.00;;
78614;SDS011;67937;52.488;20.952;2023-08-20T05:59:48;19.10;;;17.10;;
78614;SDS011;67937;52.488;20.952;2023-08-20T06:02:16;17.10;;;15.40;;
78614;SDS011;67937;52.488;20.952;2023-08-20T06:04:45;19.30;;;17.30;;
78614;SDS011;67937;52.488;20.952;2023-08-20T06:07:13;17.40;;;15.60;;
78614;SDS011;67937;52.488;20.952;2023-08-20T06:09:40;17.50;;;15.70;;
78614;SDS011;67937;52.488;20.952;2023-08-20T06:12:08;18.20;;;16.30;;
78614;SDS011;67937;52.488;20.952;2023-08-20T06:14:36;17.40;;;15.60;;
78614;SDS011;67937;52.488;20.952;2023-08-20T06:17:04;18.20;;;16.40;;
78614;SDS011;67937;52.488;20.952;2023-08-20T06:19:33;18.10;;;16.30;;
78614;SDS011;67937;52.488;20.952;2023-08-20T06:22:01;17.90;;;16.00;;
78614;SDS011;67937;52.488;20.952;2023-08-20T06:24:29;19.80;;;17.80;;
78614;SDS011;67937;52.488;20.952;2023-08-20T06:26:57;18.00;;;16.30;;
78614;SDS011;67937;52.488;20.952;2023-08-20T06:29:25;17.50;;;15.30;;
78614;SDS011;67937;52.488;20.952;2023-08-20T06:31:53;18.90;;;17.00;;
78614;SDS011;67937;52.488;20.952;2023-08-20T06:34:21;17.80;;;16.00;;
78614;SDS011;67937;52.488;20.952;2023-08-20T06:36:49;18.00;;;16.10;;
78614;SDS011;67937;52.488;20.952;2023-08-20T06:39:17;17.60;;;15.80;;
78614;SDS011;67937;52.488;20.952;2023-08-20T06:41:46;17.20;;;15.20;;
78614;SDS011;67937;52.488;20.952;2023-08-20T06:44:14;18.90;;;17.00;;
78614;SDS011;67937;52.488;20.952;2023-08-20T06:46:42;17.20;;;15.40;;
78614;SDS011;67937;52.488;20.952;2023-08-20T06:49:10;18.30;;;16.50;;
78614;SDS011;67937;52.488;20.952;2023-08-20T06:51:37;18.20;;;16.50;;
78614;SDS011;67937;52.488;20.952;2023-08-20T06:54:05;17.20;;;15.50;;
78614;SDS011;67937;52.488;20.952;2023-08-20T06:56:34;16.70;;;15.20;;
78614;SDS011;67937;52.488;20.952;2023-08-20T06:59:02;16.80;;;15.30;;
78614;SDS011;67937;52.488;20.952;2023-08-20T07:01:30;16.20;;;14.70;;
78614;SDS011;67937;52.488;20.952;2023-08-20T07:03:58;17.90;;;15.90;;
78614;SDS011;67937;52.488;20.952;2023-08-20T07:06:26;17.10;;;15.40;;
78614;SDS011;67937;52.488;20.952;2023-08-20T07:08:54;18.70;;;16.90;;
78614;SDS011;67937;52.488;20.952;2023-08-20T07:11:22;16.90;;;15.40;;
78614;SDS011;67937;52.488;20.952;2023-08-20T07:13:50;17.00;;;15.20;;
78614;SDS011;67937;52.488;20.952;2023-08-20T07:16:17;19.20;;;17.40;;
78614;SDS011;67937;52.488;20.952;2023-08-20T07:18:45;17.10;;;15.50;;
78614;SDS011;67937;52.488;20.952;2023-08-20T07:21:13;17.60;;;15.80;;
78614;SDS011;67937;52.488;20.952;2023-08-20T07:23:41;17.20;;;15.40;;
78614;SDS011;67937;52.488;20.952;2023-08-20T07:26:10;15.80;;;14.30;;
78614;SDS011;67937;52.488;20.952;2023-08-20T07:28:39;16.70;;;14.90;;
78614;SDS011;67937;52.488;20.952;2023-08-20T07:31:25;17.10;;;15.50;;
78614;SDS011;67937;52.488;20.952;2023-08-20T07:33:57;17.20;;;15.50;;
78614;SDS011;67937;52.488;20.952;2023-08-20T07:36:27;16.20;;;14.40;;
78614;SDS011;67937;52.488;20.952;2023-08-20T07:38:55;15.20;;;13.70;;
78614;SDS011;67937;52.488;20.952;2023-08-20T07:41:23;15.30;;;13.90;;
78614;SDS011;67937;52.488;20.952;2023-08-20T07:43:51;16.70;;;15.00;;
78614;SDS011;67937;52.488;20.952;2023-08-20T07:46:20;17.10;;;15.30;;
78614;SDS011;67937;52.488;20.952;2023-08-20T07:48:48;16.90;;;15.20;;
78614;SDS011;67937;52.488;20.952;2023-08-20T07:51:16;15.30;;;13.90;;
78614;SDS011;67937;52.488;20.952;2023-08-20T07:53:44;15.30;;;13.90;;
78614;SDS011;67937;52.488;20.952;2023-08-20T07:56:12;14.90;;;13.50;;
78614;SDS011;67937;52.488;20.952;2023-08-20T07:58:40;14.60;;;13.10;;
78614;SDS011;67937;52.488;20.952;2023-08-20T08:01:08;14.80;;;13.40;;
78614;SDS011;67937;52.488;20.952;2023-08-20T08:03:36;15.10;;;13.60;;
78614;SDS011;67937;52.488;20.952;2023-08-20T08:06:03;14.40;;;12.50;;
78614;SDS011;67937;52.488;20.952;2023-08-20T08:08:31;15.30;;;12.70;;
78614;SDS011;67937;52.488;20.952;2023-08-20T08:11:00;13.90;;;12.70;;
78614;SDS011;67937;52.488;20.952;2023-08-20T08:13:28;13.80;;;12.60;;
78614;SDS011;67937;52.488;20.952;2023-08-20T08:15:56;13.50;;;12.10;;
78614;SDS011;67937;52.488;20.952;2023-08-20T08:18:24;15.50;;;14.00;;
78614;SDS011;67937;52.488;20.952;2023-08-20T08:20:52;12.70;;;11.70;;
78614;SDS011;67937;52.488;20.952;2023-08-20T08:23:20;13.20;;;12.10;;
78614;SDS011;67937;52.488;20.952;2023-08-20T08:25:48;11.70;;;10.10;;
78614;SDS011;67937;52.488;20.952;2023-08-20T08:28:16;12.90;;;11.80;;
78614;SDS011;67937;52.488;20.952;2023-08-20T08:30:44;13.70;;;12.40;;
78614;SDS011;67937;52.488;20.952;2023-08-20T08:33:12;14.30;;;13.00;;
78614;SDS011;67937;52.488;20.952;2023-08-20T08:35:40;13.00;;;11.80;;
78614;SDS011;67937;52.488;20.952;2023-08-20T08:38:07;13.10;;;11.90;;
78614;SDS011;67937;52.488;20.952;2023-08-20T08:40:35;12.40;;;11.30;;
78614;SDS011;67937;52.488;20.952;2023-08-20T08:43:04;12.30;;;11.10;;
78614;SDS011;67937;52.488;20.952;2023-08-20T08:45:33;12.40;;;11.30;;
78614;SDS011;67937;52.488;20.952;2023-08-20T08:48:01;11.40;;;10.50;;
78614;SDS011;67937;52.488;20.952;2023-08-20T08:50:31;11.30;;;10.30;;
78614;SDS011;67937;52.488;20.952;2023-08-20T08:52:59;11.20;;;10.40;;
78614;SDS011;67937;52.488;20.952;2023-08-20T08:55:28;11.60;;;10.70;;
78614;SDS011;67937;52.488;20.952;2023-08-20T08:57:56;10.40;;;9.50;;
78614;SDS011;67937;52.488;20.952;2023-08-20T09:00:24;11.30;;;10.40;;
78614;SDS011;67937;52.488;20.952;2023-08-20T09:02:53;11.70;;;10.40;;
78614;SDS011;67937;52.488;20.952;2023-08-20T09:05:21;11.00;;;9.90;;
78614;SDS011;67937;52.488;20.952;2023-08-20T09:07:54;11.70;;;10.70;;
78614;SDS011;67937;52.488;20.952;2023-08-20T09:10:25;11.50;;;10.60;;
78614;SDS011;67937;52.488;20.952;2023-08-20T09:12:55;10.90;;;10.00;;
78614;SDS011;67937;52.488;20.952;2023-08-20T09:15:33;10.90;;;9.90;;
78614;SDS011;67937;52.488;20.952;2023-08-20T09:18:02;11.50;;;10.40;;
78614;SDS011;67937;52.488;20.952;2023-08-20T09:20:37;11.20;;;9.80;;
78614;SDS011;67937;52.488;20.952;2023-08-20T09:23:10;10.40;;;9.50;;
78614;SDS011;67937;52.488;20.952;2023-08-20T09:25:40;10.50;;;9.60;;
78614;SDS011;67937;52.488;20.952;2023-08-20T09:28:09;11.00;;;9.90;;
78614;SDS011;67937;52.488;20.952;2023-08-20T09:30:37;11.30;;;10.40;;
78614;SDS011;67937;52.488;20.952;2023-08-20T09:33:11;10.50;;;9.50;;
78614;SDS011;67937;52.488;20.952;2023-08-20T09:35:48;10.10;;;9.30;;
78614;SDS011;67937;52.488;20.952;2023-08-20T09:38:18;9.80;;;9.00;;
78614;SDS011;67937;52.488;20.952;2023-08-20T09:40:48;10.40;;;9.50;;
78614;SDS011;67937;52.488;20.952;2023-08-20T09:43:19;10.10;;;9.30;;
78614;SDS011;67937;52.488;20.952;2023-08-20T09:45:47;10.60;;;9.30;;
78614;SDS011;67937;52.488;20.952;2023-08-20T09:48:17;10.80;;;9.70;;
78614;SDS011;67937;52.488;20.952;2023-08-20T09:50:47;11.20;;;10.10;;
78614;SDS011;67937;52.488;20.952;2023-08-20T09:53:27;10.10;;;9.20;;
78614;SDS011;67937;52.488;20.952;2023-08-20T09:56:29;11.10;;;10.00;;
78614;SDS011;67937;52.488;20.952;2023-08-20T09:58:58;11.20;;;10.00;;
78614;SDS011;67937;52.488;20.952;2023-08-20T10:01:27;11.10;;;9.40;;
78614;SDS011;67937;52.488;20.952;2023-08-20T10:03:57;10.60;;;9.20;;
78614;SDS011;67937;52.488;20.952;2023-08-20T10:06:27;10.20;;;9.30;;
78614;SDS011;67937;52.488;20.952;2023-08-20T10:11:25;8.60;;;7.90;;
78614;SDS011;67937;52.488;20.952;2023-08-20T10:13:54;11.00;;;10.10;;
78614;SDS011;67937;52.488;20.952;2023-08-20T10:16:22;9.40;;;8.70;;
78614;SDS011;67937;52.488;20.952;2023-08-20T10:18:51;10.00;;;9.10;;
78614;SDS011;67937;52.488;20.952;2023-08-20T10:21:24;10.00;;;9.10;;
78614;SDS011;67937;52.488;20.952;2023-08-20T10:23:54;10.10;;;8.80;;
78614;SDS011;67937;52.488;20.952;2023-08-20T10:26:22;9.80;;;8.90;;
78614;SDS011;67937;52.488;20.952;2023-08-20T10:28:51;9.50;;;8.60;;
78614;SDS011;67937;52.488;20.952;2023-08-20T10:31:57;10.40;;;9.60;;
78614;SDS011;67937;52.488;20.952;2023-08-20T10:34:31;9.80;;;9.00;;
78614;SDS011;67937;52.488;20.952;2023-08-20T10:37:02;9.30;;;8.60;;
78614;SDS011;67937;52.488;20.952;2023-08-20T10:39:36;8.60;;;7.90;;
78614;SDS011;67937;52.488;20.952;2023-08-20T10:44:58;8.70;;;8.00;;
78614;SDS011;67937;52.488;20.952;2023-08-20T10:47:42;10.00;;;9.10;;
78614;SDS011;67937;52.488;20.952;2023-08-20T10:50:15;10.40;;;9.30;;
78614;SDS011;67937;52.488;20.952;2023-08-20T10:52:48;9.50;;;8.60;;
78614;SDS011;67937;52.488;20.952;2023-08-20T10:55:21;9.50;;;8.70;;
78614;SDS011;67937;52.488;20.952;2023-08-20T10:57:56;11.10;;;9.70;;
78614;SDS011;67937;52.488;20.952;2023-08-20T11:00:25;8.20;;;7.50;;
78614;SDS011;67937;52.488;20.952;2023-08-20T11:02:54;8.80;;;8.10;;
78614;SDS011;67937;52.488;20.952;2023-08-20T11:05:23;9.30;;;8.40;;
78614;SDS011;67937;52.488;20.952;2023-08-20T11:07:51;10.30;;;9.40;;
78614;SDS011;67937;52.488;20.952;2023-08-20T11:10:19;9.70;;;8.80;;
78614;SDS011;67937;52.488;20.952;2023-08-20T11:12:47;8.60;;;7.90;;
78614;SDS011;67937;52.488;20.952;2023-08-20T11:15:15;8.70;;;8.00;;
78614;SDS011;67937;52.488;20.952;2023-08-20T11:17:47;10.20;;;9.40;;
78614;SDS011;67937;52.488;20.952;2023-08-20T11:20:15;7.80;;;7.20;;
78614;SDS011;67937;52.488;20.952;2023-08-20T11:22:43;9.10;;;8.30;;
78614;SDS011;67937;52.488;20.952;2023-08-20T11:25:24;8.80;;;8.00;;
78614;SDS011;67937;52.488;20.952;2023-08-20T11:27:52;9.10;;;8.30;;
78614;SDS011;67937;52.488;20.952;2023-08-20T11:30:20;8.70;;;7.90;;
78614;SDS011;67937;52.488;20.952;2023-08-20T11:32:49;9.00;;;8.20;;
78614;SDS011;67937;52.488;20.952;2023-08-20T11:35:19;9.30;;;8.50;;
78614;SDS011;67937;52.488;20.952;2023-08-20T11:37:49;8.90;;;8.00;;
78614;SDS011;67937;52.488;20.952;2023-08-20T11:40:17;10.00;;;9.20;;
78614;SDS011;67937;52.488;20.952;2023-08-20T11:42:48;9.20;;;8.40;;
78614;SDS011;67937;52.488;20.952;2023-08-20T11:45:16;9.50;;;8.60;;
78614;SDS011;67937;52.488;20.952;2023-08-20T11:47:44;9.00;;;8.30;;
78614;SDS011;67937;52.488;20.952;2023-08-20T11:50:12;9.80;;;8.90;;
78614;SDS011;67937;52.488;20.952;2023-08-20T11:52:40;11.10;;;10.20;;
78614;SDS011;67937;52.488;20.952;2023-08-20T11:55:08;9.40;;;8.00;;
78614;SDS011;67937;52.488;20.952;2023-08-20T11:57:37;8.90;;;8.10;;
78614;SDS011;67937;52.488;20.952;2023-08-20T12:00:05;9.80;;;8.90;;
78614;SDS011;67937;52.488;20.952;2023-08-20T12:02:37;9.70;;;8.90;;
78614;SDS011;67937;52.488;20.952;2023-08-20T12:05:08;9.20;;;8.50;;
78614;SDS011;67937;52.488;20.952;2023-08-20T12:07:36;8.80;;;8.20;;
78614;SDS011;67937;52.488;20.952;2023-08-20T12:10:20;8.80;;;8.10;;
78614;SDS011;67937;52.488;20.952;2023-08-20T12:12:49;10.60;;;9.60;;
78614;SDS011;67937;52.488;20.952;2023-08-20T12:15:17;9.80;;;9.00;;
78614;SDS011;67937;52.488;20.952;2023-08-20T12:17:56;10.00;;;9.10;;
78614;SDS011;67937;52.488;20.952;2023-08-20T12:20:26;8.30;;;7.60;;
78614;SDS011;67937;52.488;20.952;2023-08-20T12:22:57;9.00;;;8.20;;
78614;SDS011;67937;52.488;20.952;2023-08-20T12:25:26;8.80;;;8.10;;
78614;SDS011;67937;52.488;20.952;2023-08-20T12:27:55;9.80;;;8.90;;
78614;SDS011;67937;52.488;20.952;2023-08-20T12:30:23;8.30;;;7.70;;
78614;SDS011;67937;52.488;20.952;2023-08-20T12:32:51;10.10;;;9.20;;
78614;SDS011;67937;52.488;20.952;2023-08-20T12:35:19;9.60;;;8.70;;
78614;SDS011;67937;52.488;20.952;2023-08-20T12:37:47;8.60;;;7.80;;
78614;SDS011;67937;52.488;20.952;2023-08-20T12:40:15;9.10;;;8.20;;
78614;SDS011;67937;52.488;20.952;2023-08-20T12:42:43;8.20;;;7.50;;
78614;SDS011;67937;52.488;20.952;2023-08-20T12:45:11;9.00;;;8.40;;
78614;SDS011;67937;52.488;20.952;2023-08-20T12:47:40;8.80;;;8.10;;
78614;SDS011;67937;52.488;20.952;2023-08-20T12:50:08;8.30;;;7.60;;
78614;SDS011;67937;52.488;20.952;2023-08-20T12:52:37;9.50;;;8.60;;
78614;SDS011;67937;52.488;20.952;2023-08-20T12:55:05;7.40;;;6.80;;
78614;SDS011;67937;52.488;20.952;2023-08-20T12:57:34;8.30;;;7.60;;
78614;SDS011;67937;52.488;20.952;2023-08-20T13:05:06;8.50;;;7.70;;
78614;SDS011;67937;52.488;20.952;2023-08-20T13:07:35;8.80;;;8.10;;
78614;SDS011;67937;52.488;20.952;2023-08-20T13:10:04;8.00;;;7.30;;
78614;SDS011;67937;52.488;20.952;2023-08-20T13:12:32;8.60;;;7.90;;
78614;SDS011;67937;52.488;20.952;2023-08-20T13:17:31;9.10;;;8.40;;
78614;SDS011;67937;52.488;20.952;2023-08-20T13:19:59;7.90;;;7.20;;
78614;SDS011;67937;52.488;20.952;2023-08-20T13:22:28;7.70;;;7.00;;
78614;SDS011;67937;52.488;20.952;2023-08-20T13:24:56;8.40;;;7.70;;
78614;SDS011;67937;52.488;20.952;2023-08-20T13:27:24;10.80;;;9.30;;
78614;SDS011;67937;52.488;20.952;2023-08-20T13:29:52;9.00;;;8.20;;
78614;SDS011;67937;52.488;20.952;2023-08-20T13:32:20;9.70;;;8.80;;
78614;SDS011;67937;52.488;20.952;2023-08-20T13:34:49;9.40;;;8.40;;
78614;SDS011;67937;52.488;20.952;2023-08-20T13:37:17;9.40;;;8.70;;
78614;SDS011;67937;52.488;20.952;2023-08-20T13:39:45;8.90;;;8.20;;
78614;SDS011;67937;52.488;20.952;2023-08-20T13:42:13;8.80;;;8.00;;
78614;SDS011;67937;52.488;20.952;2023-08-20T13:44:42;10.30;;;9.50;;
78614;SDS011;67937;52.488;20.952;2023-08-20T13:47:10;8.70;;;8.00;;
78614;SDS011;67937;52.488;20.952;2023-08-20T13:49:38;8.90;;;8.30;;
78614;SDS011;67937;52.488;20.952;2023-08-20T13:52:06;9.50;;;8.50;;
78614;SDS011;67937;52.488;20.952;2023-08-20T13:54:35;9.20;;;8.40;;
78614;SDS011;67937;52.488;20.952;2023-08-20T13:57:03;9.70;;;8.80;;
78614;SDS011;67937;52.488;20.952;2023-08-20T13:59:32;8.80;;;8.10;;
78614;SDS011;67937;52.488;20.952;2023-08-20T14:02:00;9.50;;;8.70;;
78614;SDS011;67937;52.488;20.952;2023-08-20T14:04:28;9.20;;;8.40;;
78614;SDS011;67937;52.488;20.952;2023-08-20T14:06:56;9.50;;;8.70;;
78614;SDS011;67937;52.488;20.952;2023-08-20T14:09:24;9.50;;;8.70;;
78614;SDS011;67937;52.488;20.952;2023-08-20T14:11:52;9.60;;;8.70;;
78614;SDS011;67937;52.488;20.952;2023-08-20T14:14:20;9.90;;;8.90;;
78614;SDS011;67937;52.488;20.952;2023-08-20T14:16:48;8.50;;;7.80;;
78614;SDS011;67937;52.488;20.952;2023-08-20T14:19:16;10.80;;;9.80;;
78614;SDS011;67937;52.488;20.952;2023-08-20T14:21:44;10.40;;;9.50;;
78614;SDS011;67937;52.488;20.952;2023-08-20T14:24:12;9.20;;;8.40;;
78614;SDS011;67937;52.488;20.952;2023-08-20T14:26:40;10.30;;;9.40;;
78614;SDS011;67937;52.488;20.952;2023-08-20T14:29:08;10.40;;;9.40;;
78614;SDS011;67937;52.488;20.952;2023-08-20T14:31:36;9.50;;;8.70;;
78614;SDS011;67937;52.488;20.952;2023-08-20T14:34:04;10.30;;;9.40;;
78614;SDS011;67937;52.488;20.952;2023-08-20T14:36:32;9.10;;;8.30;;
78614;SDS011;67937;52.488;20.952;2023-08-20T14:39:00;10.00;;;9.20;;
78614;SDS011;67937;52.488;20.952;2023-08-20T14:41:29;9.30;;;8.50;;
78614;SDS011;67937;52.488;20.952;2023-08-20T14:43:57;9.60;;;8.80;;
78614;SDS011;67937;52.488;20.952;2023-08-20T14:46:25;9.90;;;9.00;;
78614;SDS011;67937;52.488;20.952;2023-08-20T14:48:53;9.40;;;8.40;;
78614;SDS011;67937;52.488;20.952;2023-08-20T14:51:21;11.30;;;10.20;;